Towson, MD

12:11 AM EDT on May 05, 2015 (GMT -0400)
Phillips Army Air Field | | Change Station
CLOSE
Current Station
Airport
Location: Phillips Army Airfield,
Elevation: 59 ft
Nearby Weather Stations

Elev 59 ft 39.47 °N, 76.17 °W | Updated 4 hours ago

Clear
Clear
77 °F
Feels Like 77 °F
N
9
Wind Variable Wind from South

Today
High -- | Low -- °F
--% Chance of Precip.
Yesterday
High -- | Low -- °F
Precip. -- in
6:03 AM 8:03 PM
Full, 99% visible
Pressure 30.15 in
Visibility 7.0 miles
Clouds Few 20000 ft
Dew Point 46 °F
Humidity 34%
Rainfall 0.00 in
Snow Depth Not available.
UV 0 out of 12
Pollen 10.70 out of 12
Air Quality Not available.
Flu Activity Local Activity
METAR KAPG 042353Z 18008KT 7SM FEW200 25/08 A3015 RMK LAST

More Conditions Fewer Conditions

Pressure 30.15 in
Visibility 7.0 miles
Clouds Few 20000 ft
Dew Point 46 °F
Humidity 34%
Rainfall 0.00 in
Snow Depth Not available.
UV 0 out of 12
Pollen 10.70 out of 12
Air Quality Not available.
Flu Activity Local Activity
METAR KAPG 042353Z 18008KT 7SM FEW200 25/08 A3015 RMK LAST

More Conditions Fewer Conditions

Nepal has a long way to go to dig out and rebuild from a devastating earthquake. We have teamed up with several charities and organizations to make contributing to the relief effort as easy as possible.
How you can help: Portlight Strategies | Red Cross

10-Day Weather Forecast

Almanac

Astronomy

May. 05, 2015 Rise Set
Actual Time
Civil Twilight
Nautical Twilight
Astronomical Twilight
Moon
Length of Visible Light
Length of Day
Tomorrow will be .
, % of the Moon is Illuminated

Today's Extremes

State Highs State Lows

Community

WunderPhotos

Upload Photos

1,818,814 photos uploaded!

WunderBlogs® & News

Nearby

Air Quality

  Air Quality AQ Index Pollutant
Not available.

Snow Depth

Station Depth Elevation

Earthquake Activity

City Distance Mag. Time & Date
Minimum magnitude displayed is 2.5.

Coastal Water Temperatures

Place Temperature

Stations

Nearby Weather Stations

Station Location Temp. Windchill Dew Point Humidity Wind Precip. Elev Updated Type